sensor_id;sensor_type;location;lat;lon;timestamp;P1;durP1;ratioP1;P2;durP2;ratioP2
53646;SDS011;39550;52.230;5.194;2023-07-30T00:00:38;6.35;;;3.17;;
53646;SDS011;39550;52.230;5.194;2023-07-30T00:03:03;7.45;;;3.28;;
53646;SDS011;39550;52.230;5.194;2023-07-30T00:05:28;7.90;;;3.58;;
53646;SDS011;39550;52.230;5.194;2023-07-30T00:07:54;6.68;;;3.42;;
53646;SDS011;39550;52.230;5.194;2023-07-30T00:10:20;6.35;;;3.40;;
53646;SDS011;39550;52.230;5.194;2023-07-30T00:12:45;6.47;;;3.53;;
53646;SDS011;39550;52.230;5.194;2023-07-30T00:15:11;7.53;;;3.10;;
53646;SDS011;39550;52.230;5.194;2023-07-30T00:17:38;6.95;;;3.30;;
53646;SDS011;39550;52.230;5.194;2023-07-30T00:20:04;7.32;;;3.35;;
53646;SDS011;39550;52.230;5.194;2023-07-30T00:22:31;7.57;;;3.75;;
53646;SDS011;39550;52.230;5.194;2023-07-30T00:24:57;9.27;;;3.40;;
53646;SDS011;39550;52.230;5.194;2023-07-30T00:27:22;9.60;;;3.20;;
53646;SDS011;39550;52.230;5.194;2023-07-30T00:29:48;8.25;;;3.35;;
53646;SDS011;39550;52.230;5.194;2023-07-30T00:32:13;8.27;;;3.70;;
53646;SDS011;39550;52.230;5.194;2023-07-30T00:34:41;7.45;;;3.78;;
53646;SDS011;39550;52.230;5.194;2023-07-30T00:37:06;8.10;;;3.47;;
53646;SDS011;39550;52.230;5.194;2023-07-30T00:39:32;9.48;;;3.65;;
53646;SDS011;39550;52.230;5.194;2023-07-30T00:41:59;6.57;;;3.10;;
53646;SDS011;39550;52.230;5.194;2023-07-30T00:44:24;8.13;;;3.50;;
53646;SDS011;39550;52.230;5.194;2023-07-30T00:46:50;5.30;;;3.20;;
53646;SDS011;39550;52.230;5.194;2023-07-30T00:49:16;6.90;;;3.05;;
53646;SDS011;39550;52.230;5.194;2023-07-30T00:51:41;6.47;;;3.30;;
53646;SDS011;39550;52.230;5.194;2023-07-30T00:54:07;7.45;;;3.30;;
53646;SDS011;39550;52.230;5.194;2023-07-30T00:56:33;7.82;;;2.90;;
53646;SDS011;39550;52.230;5.194;2023-07-30T00:58:59;5.32;;;3.17;;
53646;SDS011;39550;52.230;5.194;2023-07-30T01:01:26;9.07;;;3.47;;
53646;SDS011;39550;52.230;5.194;2023-07-30T01:03:52;5.90;;;2.80;;
53646;SDS011;39550;52.230;5.194;2023-07-30T01:06:17;7.18;;;3.45;;
53646;SDS011;39550;52.230;5.194;2023-07-30T01:08:47;7.85;;;3.50;;
53646;SDS011;39550;52.230;5.194;2023-07-30T01:11:13;6.07;;;3.22;;
53646;SDS011;39550;52.230;5.194;2023-07-30T01:13:40;7.70;;;3.20;;
53646;SDS011;39550;52.230;5.194;2023-07-30T01:16:07;6.75;;;3.28;;
53646;SDS011;39550;52.230;5.194;2023-07-30T01:18:35;8.05;;;3.10;;
53646;SDS011;39550;52.230;5.194;2023-07-30T01:21:00;6.97;;;3.13;;
53646;SDS011;39550;52.230;5.194;2023-07-30T01:23:26;8.60;;;3.45;;
53646;SDS011;39550;52.230;5.194;2023-07-30T01:26:08;5.72;;;2.78;;
53646;SDS011;39550;52.230;5.194;2023-07-30T01:28:43;6.70;;;2.65;;
53646;SDS011;39550;52.230;5.194;2023-07-30T01:31:14;8.43;;;3.00;;
53646;SDS011;39550;52.230;5.194;2023-07-30T01:33:41;5.68;;;3.13;;
53646;SDS011;39550;52.230;5.194;2023-07-30T01:36:08;5.68;;;3.42;;
53646;SDS011;39550;52.230;5.194;2023-07-30T01:38:39;7.97;;;3.03;;
53646;SDS011;39550;52.230;5.194;2023-07-30T01:41:05;5.53;;;3.00;;
53646;SDS011;39550;52.230;5.194;2023-07-30T01:43:31;6.13;;;3.13;;
53646;SDS011;39550;52.230;5.194;2023-07-30T01:45:56;5.53;;;2.70;;
53646;SDS011;39550;52.230;5.194;2023-07-30T01:48:21;8.13;;;3.22;;
53646;SDS011;39550;52.230;5.194;2023-07-30T01:50:47;6.00;;;3.08;;
53646;SDS011;39550;52.230;5.194;2023-07-30T01:53:13;5.78;;;2.80;;
53646;SDS011;39550;52.230;5.194;2023-07-30T01:55:39;6.35;;;2.88;;
53646;SDS011;39550;52.230;5.194;2023-07-30T01:58:08;6.22;;;3.30;;
53646;SDS011;39550;52.230;5.194;2023-07-30T02:00:34;5.28;;;2.75;;
53646;SDS011;39550;52.230;5.194;2023-07-30T02:03:01;5.95;;;3.47;;
53646;SDS011;39550;52.230;5.194;2023-07-30T02:05:26;6.00;;;3.40;;
53646;SDS011;39550;52.230;5.194;2023-07-30T02:07:52;6.72;;;3.28;;
53646;SDS011;39550;52.230;5.194;2023-07-30T02:10:17;5.40;;;2.70;;
53646;SDS011;39550;52.230;5.194;2023-07-30T02:12:43;7.30;;;3.05;;
53646;SDS011;39550;52.230;5.194;2023-07-30T02:15:09;6.80;;;3.22;;
53646;SDS011;39550;52.230;5.194;2023-07-30T02:17:34;6.72;;;3.08;;
53646;SDS011;39550;52.230;5.194;2023-07-30T02:19:59;5.97;;;3.08;;
53646;SDS011;39550;52.230;5.194;2023-07-30T02:22:25;8.35;;;3.88;;
53646;SDS011;39550;52.230;5.194;2023-07-30T02:24:51;7.10;;;3.50;;
53646;SDS011;39550;52.230;5.194;2023-07-30T02:27:16;7.35;;;2.95;;
53646;SDS011;39550;52.230;5.194;2023-07-30T02:29:41;8.27;;;3.50;;
53646;SDS011;39550;52.230;5.194;2023-07-30T02:32:07;6.22;;;3.65;;
53646;SDS011;39550;52.230;5.194;2023-07-30T02:34:35;6.82;;;2.85;;
53646;SDS011;39550;52.230;5.194;2023-07-30T02:37:00;5.88;;;2.83;;
53646;SDS011;39550;52.230;5.194;2023-07-30T02:39:25;6.80;;;3.10;;
53646;SDS011;39550;52.230;5.194;2023-07-30T02:41:51;6.43;;;3.28;;
53646;SDS011;39550;52.230;5.194;2023-07-30T02:44:16;6.80;;;3.22;;
53646;SDS011;39550;52.230;5.194;2023-07-30T02:46:42;7.43;;;3.25;;
53646;SDS011;39550;52.230;5.194;2023-07-30T02:49:08;6.30;;;2.83;;
53646;SDS011;39550;52.230;5.194;2023-07-30T02:51:34;7.03;;;3.20;;
53646;SDS011;39550;52.230;5.194;2023-07-30T02:54:03;7.30;;;3.50;;
53646;SDS011;39550;52.230;5.194;2023-07-30T02:56:30;7.75;;;3.20;;
53646;SDS011;39550;52.230;5.194;2023-07-30T02:58:56;8.65;;;3.60;;
53646;SDS011;39550;52.230;5.194;2023-07-30T03:01:23;7.72;;;2.95;;
53646;SDS011;39550;52.230;5.194;2023-07-30T03:03:49;6.63;;;3.17;;
53646;SDS011;39550;52.230;5.194;2023-07-30T03:06:14;7.60;;;3.30;;
53646;SDS011;39550;52.230;5.194;2023-07-30T03:08:41;7.72;;;3.10;;
53646;SDS011;39550;52.230;5.194;2023-07-30T03:11:07;7.72;;;3.20;;
53646;SDS011;39550;52.230;5.194;2023-07-30T03:13:35;6.55;;;2.92;;
53646;SDS011;39550;52.230;5.194;2023-07-30T03:16:01;7.78;;;3.42;;
53646;SDS011;39550;52.230;5.194;2023-07-30T03:18:26;6.65;;;2.97;;
53646;SDS011;39550;52.230;5.194;2023-07-30T03:20:56;8.50;;;3.33;;
53646;SDS011;39550;52.230;5.194;2023-07-30T03:23:23;6.32;;;3.28;;
53646;SDS011;39550;52.230;5.194;2023-07-30T03:25:48;7.43;;;2.92;;
53646;SDS011;39550;52.230;5.194;2023-07-30T03:28:13;6.65;;;2.90;;
53646;SDS011;39550;52.230;5.194;2023-07-30T03:30:39;7.88;;;2.97;;
53646;SDS011;39550;52.230;5.194;2023-07-30T03:33:04;7.40;;;3.30;;
53646;SDS011;39550;52.230;5.194;2023-07-30T03:35:29;6.95;;;3.17;;
53646;SDS011;39550;52.230;5.194;2023-07-30T03:37:55;6.75;;;3.22;;
53646;SDS011;39550;52.230;5.194;2023-07-30T03:40:20;7.38;;;3.38;;
53646;SDS011;39550;52.230;5.194;2023-07-30T03:42:46;6.38;;;3.20;;
53646;SDS011;39550;52.230;5.194;2023-07-30T03:45:11;5.20;;;2.83;;
53646;SDS011;39550;52.230;5.194;2023-07-30T03:47:37;6.75;;;3.20;;
53646;SDS011;39550;52.230;5.194;2023-07-30T03:50:02;6.25;;;3.15;;
53646;SDS011;39550;52.230;5.194;2023-07-30T03:52:27;8.27;;;3.30;;
53646;SDS011;39550;52.230;5.194;2023-07-30T03:54:53;8.55;;;3.75;;
53646;SDS011;39550;52.230;5.194;2023-07-30T03:57:18;6.88;;;3.50;;
53646;SDS011;39550;52.230;5.194;2023-07-30T03:59:43;7.93;;;3.90;;
53646;SDS011;39550;52.230;5.194;2023-07-30T04:02:08;9.68;;;3.60;;
53646;SDS011;39550;52.230;5.194;2023-07-30T04:04:34;6.20;;;3.50;;
53646;SDS011;39550;52.230;5.194;2023-07-30T04:06:59;8.88;;;3.67;;
53646;SDS011;39550;52.230;5.194;2023-07-30T04:09:25;5.95;;;3.33;;
53646;SDS011;39550;52.230;5.194;2023-07-30T04:11:50;6.15;;;3.38;;
53646;SDS011;39550;52.230;5.194;2023-07-30T04:14:15;6.75;;;3.00;;
53646;SDS011;39550;52.230;5.194;2023-07-30T04:16:41;8.52;;;4.40;;
53646;SDS011;39550;52.230;5.194;2023-07-30T04:19:09;7.55;;;3.20;;
53646;SDS011;39550;52.230;5.194;2023-07-30T04:21:34;6.85;;;3.17;;
53646;SDS011;39550;52.230;5.194;2023-07-30T04:23:59;8.60;;;3.25;;
53646;SDS011;39550;52.230;5.194;2023-07-30T04:26:25;5.72;;;3.28;;
53646;SDS011;39550;52.230;5.194;2023-07-30T04:28:50;6.95;;;3.65;;
53646;SDS011;39550;52.230;5.194;2023-07-30T04:31:15;8.75;;;3.53;;
53646;SDS011;39550;52.230;5.194;2023-07-30T04:33:41;7.78;;;3.67;;
53646;SDS011;39550;52.230;5.194;2023-07-30T04:36:06;7.30;;;3.65;;
53646;SDS011;39550;52.230;5.194;2023-07-30T04:38:32;7.47;;;3.42;;
53646;SDS011;39550;52.230;5.194;2023-07-30T04:40:58;10.55;;;3.55;;
53646;SDS011;39550;52.230;5.194;2023-07-30T04:43:23;6.28;;;3.20;;
53646;SDS011;39550;52.230;5.194;2023-07-30T04:45:49;6.78;;;3.55;;
53646;SDS011;39550;52.230;5.194;2023-07-30T04:48:14;9.05;;;4.20;;
53646;SDS011;39550;52.230;5.194;2023-07-30T04:50:40;9.07;;;4.18;;
53646;SDS011;39550;52.230;5.194;2023-07-30T04:53:07;9.52;;;3.90;;
53646;SDS011;39550;52.230;5.194;2023-07-30T04:55:33;7.05;;;3.40;;
53646;SDS011;39550;52.230;5.194;2023-07-30T04:57:58;11.18;;;3.83;;
53646;SDS011;39550;52.230;5.194;2023-07-30T05:00:24;8.52;;;3.53;;
53646;SDS011;39550;52.230;5.194;2023-07-30T05:02:49;7.35;;;3.45;;
53646;SDS011;39550;52.230;5.194;2023-07-30T05:05:14;7.82;;;3.67;;
53646;SDS011;39550;52.230;5.194;2023-07-30T05:07:40;10.60;;;4.32;;
53646;SDS011;39550;52.230;5.194;2023-07-30T05:10:05;7.47;;;3.78;;
53646;SDS011;39550;52.230;5.194;2023-07-30T05:12:33;8.40;;;4.32;;
53646;SDS011;39550;52.230;5.194;2023-07-30T05:14:59;10.07;;;4.20;;
53646;SDS011;39550;52.230;5.194;2023-07-30T05:17:24;12.70;;;4.30;;
53646;SDS011;39550;52.230;5.194;2023-07-30T05:19:49;11.68;;;3.92;;
53646;SDS011;39550;52.230;5.194;2023-07-30T05:22:15;9.52;;;3.83;;
53646;SDS011;39550;52.230;5.194;2023-07-30T05:24:40;8.60;;;3.60;;
53646;SDS011;39550;52.230;5.194;2023-07-30T05:27:06;9.68;;;3.85;;
53646;SDS011;39550;52.230;5.194;2023-07-30T05:29:31;8.85;;;4.10;;
53646;SDS011;39550;52.230;5.194;2023-07-30T05:31:56;9.00;;;3.55;;
53646;SDS011;39550;52.230;5.194;2023-07-30T05:34:22;9.18;;;3.35;;
53646;SDS011;39550;52.230;5.194;2023-07-30T05:36:47;8.38;;;4.20;;
53646;SDS011;39550;52.230;5.194;2023-07-30T05:39:12;13.27;;;3.92;;
53646;SDS011;39550;52.230;5.194;2023-07-30T05:41:38;11.00;;;3.83;;
53646;SDS011;39550;52.230;5.194;2023-07-30T05:44:03;9.35;;;3.78;;
53646;SDS011;39550;52.230;5.194;2023-07-30T05:46:28;8.93;;;4.13;;
53646;SDS011;39550;52.230;5.194;2023-07-30T05:48:54;9.20;;;4.13;;
53646;SDS011;39550;52.230;5.194;2023-07-30T05:51:19;8.30;;;3.50;;
53646;SDS011;39550;52.230;5.194;2023-07-30T05:53:44;9.27;;;4.07;;
53646;SDS011;39550;52.230;5.194;2023-07-30T05:56:10;10.18;;;4.53;;
53646;SDS011;39550;52.230;5.194;2023-07-30T05:58:37;9.77;;;4.50;;
53646;SDS011;39550;52.230;5.194;2023-07-30T06:01:03;8.02;;;3.95;;
53646;SDS011;39550;52.230;5.194;2023-07-30T06:03:28;12.75;;;4.47;;
53646;SDS011;39550;52.230;5.194;2023-07-30T06:05:54;10.18;;;4.80;;
53646;SDS011;39550;52.230;5.194;2023-07-30T06:08:19;8.82;;;4.07;;
53646;SDS011;39550;52.230;5.194;2023-07-30T06:10:44;8.48;;;3.85;;
53646;SDS011;39550;52.230;5.194;2023-07-30T06:13:11;9.43;;;3.80;;
53646;SDS011;39550;52.230;5.194;2023-07-30T06:15:37;11.82;;;3.65;;
53646;SDS011;39550;52.230;5.194;2023-07-30T06:18:03;9.20;;;4.03;;
53646;SDS011;39550;52.230;5.194;2023-07-30T06:20:28;12.18;;;5.00;;
53646;SDS011;39550;52.230;5.194;2023-07-30T06:22:54;12.20;;;4.18;;
53646;SDS011;39550;52.230;5.194;2023-07-30T06:25:19;7.43;;;3.67;;
53646;SDS011;39550;52.230;5.194;2023-07-30T06:27:45;10.02;;;4.10;;
53646;SDS011;39550;52.230;5.194;2023-07-30T06:30:10;8.88;;;3.90;;
53646;SDS011;39550;52.230;5.194;2023-07-30T06:32:36;10.07;;;4.55;;
53646;SDS011;39550;52.230;5.194;2023-07-30T06:35:01;12.90;;;5.50;;
53646;SDS011;39550;52.230;5.194;2023-07-30T06:37:28;12.15;;;4.90;;
53646;SDS011;39550;52.230;5.194;2023-07-30T06:39:53;11.18;;;5.00;;
53646;SDS011;39550;52.230;5.194;2023-07-30T06:42:18;11.63;;;4.97;;
53646;SDS011;39550;52.230;5.194;2023-07-30T06:44:44;14.60;;;4.70;;
53646;SDS011;39550;52.230;5.194;2023-07-30T06:47:09;12.00;;;4.50;;
53646;SDS011;39550;52.230;5.194;2023-07-30T06:49:36;8.30;;;4.10;;
53646;SDS011;39550;52.230;5.194;2023-07-30T06:52:02;11.93;;;4.53;;
53646;SDS011;39550;52.230;5.194;2023-07-30T06:54:28;12.02;;;4.32;;
53646;SDS011;39550;52.230;5.194;2023-07-30T06:56:54;9.10;;;4.15;;
53646;SDS011;39550;52.230;5.194;2023-07-30T06:59:20;11.65;;;4.75;;
53646;SDS011;39550;52.230;5.194;2023-07-30T07:01:45;11.18;;;4.60;;
53646;SDS011;39550;52.230;5.194;2023-07-30T07:04:11;14.48;;;4.50;;
53646;SDS011;39550;52.230;5.194;2023-07-30T07:06:36;11.80;;;4.85;;
53646;SDS011;39550;52.230;5.194;2023-07-30T07:09:02;10.32;;;4.10;;
53646;SDS011;39550;52.230;5.194;2023-07-30T07:11:27;9.82;;;4.25;;
53646;SDS011;39550;52.230;5.194;2023-07-30T07:13:53;9.27;;;4.30;;
53646;SDS011;39550;52.230;5.194;2023-07-30T07:16:18;13.00;;;4.43;;
53646;SDS011;39550;52.230;5.194;2023-07-30T07:18:45;9.57;;;4.50;;
53646;SDS011;39550;52.230;5.194;2023-07-30T07:21:10;12.82;;;4.22;;
53646;SDS011;39550;52.230;5.194;2023-07-30T07:23:36;12.13;;;4.53;;
53646;SDS011;39550;52.230;5.194;2023-07-30T07:26:01;11.45;;;4.50;;
53646;SDS011;39550;52.230;5.194;2023-07-30T07:28:28;9.43;;;4.03;;
53646;SDS011;39550;52.230;5.194;2023-07-30T07:30:54;9.52;;;4.05;;
53646;SDS011;39550;52.230;5.194;2023-07-30T07:33:21;10.48;;;4.57;;
53646;SDS011;39550;52.230;5.194;2023-07-30T07:35:48;10.30;;;4.50;;
53646;SDS011;39550;52.230;5.194;2023-07-30T07:38:14;11.70;;;4.60;;
53646;SDS011;39550;52.230;5.194;2023-07-30T07:40:40;10.20;;;3.97;;
53646;SDS011;39550;52.230;5.194;2023-07-30T07:43:06;10.23;;;4.40;;
53646;SDS011;39550;52.230;5.194;2023-07-30T07:45:32;12.75;;;4.30;;
53646;SDS011;39550;52.230;5.194;2023-07-30T07:47:58;10.93;;;4.80;;
53646;SDS011;39550;52.230;5.194;2023-07-30T07:50:23;11.25;;;4.32;;
53646;SDS011;39550;52.230;5.194;2023-07-30T07:52:49;13.35;;;4.03;;
53646;SDS011;39550;52.230;5.194;2023-07-30T07:55:14;8.13;;;3.90;;
53646;SDS011;39550;52.230;5.194;2023-07-30T07:57:39;10.95;;;4.70;;
53646;SDS011;39550;52.230;5.194;2023-07-30T08:00:05;10.73;;;4.65;;
53646;SDS011;39550;52.230;5.194;2023-07-30T08:02:31;9.63;;;4.45;;
53646;SDS011;39550;52.230;5.194;2023-07-30T08:07:24;11.95;;;4.18;;
53646;SDS011;39550;52.230;5.194;2023-07-30T08:09:49;10.18;;;4.38;;
53646;SDS011;39550;52.230;5.194;2023-07-30T08:12:16;11.63;;;4.13;;
53646;SDS011;39550;52.230;5.194;2023-07-30T08:14:41;9.27;;;4.10;;
53646;SDS011;39550;52.230;5.194;2023-07-30T08:17:07;10.70;;;3.80;;
53646;SDS011;39550;52.230;5.194;2023-07-30T08:19:32;9.38;;;4.22;;
53646;SDS011;39550;52.230;5.194;2023-07-30T08:21:58;9.48;;;4.13;;
53646;SDS011;39550;52.230;5.194;2023-07-30T08:24:23;8.85;;;3.90;;
53646;SDS011;39550;52.230;5.194;2023-07-30T08:26:49;10.57;;;4.30;;
53646;SDS011;39550;52.230;5.194;2023-07-30T08:29:14;10.30;;;3.92;;
53646;SDS011;39550;52.230;5.194;2023-07-30T08:31:40;10.60;;;3.97;;
53646;SDS011;39550;52.230;5.194;2023-07-30T08:34:06;9.10;;;3.85;;
53646;SDS011;39550;52.230;5.194;2023-07-30T08:36:31;8.00;;;3.60;;
53646;SDS011;39550;52.230;5.194;2023-07-30T08:38:57;7.43;;;3.80;;
53646;SDS011;39550;52.230;5.194;2023-07-30T08:41:22;10.50;;;4.28;;
53646;SDS011;39550;52.230;5.194;2023-07-30T08:43:48;9.30;;;3.92;;
53646;SDS011;39550;52.230;5.194;2023-07-30T08:46:14;10.70;;;4.55;;
53646;SDS011;39550;52.230;5.194;2023-07-30T08:48:40;10.80;;;4.63;;
53646;SDS011;39550;52.230;5.194;2023-07-30T08:51:06;10.20;;;3.95;;
53646;SDS011;39550;52.230;5.194;2023-07-30T08:53:31;10.63;;;3.83;;
53646;SDS011;39550;52.230;5.194;2023-07-30T08:55:57;9.55;;;3.42;;
53646;SDS011;39550;52.230;5.194;2023-07-30T08:58:24;9.60;;;3.90;;
53646;SDS011;39550;52.230;5.194;2023-07-30T09:00:51;11.35;;;4.57;;
53646;SDS011;39550;52.230;5.194;2023-07-30T09:03:20;9.90;;;4.07;;
53646;SDS011;39550;52.230;5.194;2023-07-30T09:05:47;10.27;;;4.10;;
53646;SDS011;39550;52.230;5.194;2023-07-30T09:08:14;8.50;;;3.70;;
53646;SDS011;39550;52.230;5.194;2023-07-30T09:10:39;9.05;;;4.03;;
53646;SDS011;39550;52.230;5.194;2023-07-30T09:13:05;8.85;;;3.53;;
53646;SDS011;39550;52.230;5.194;2023-07-30T09:15:31;11.60;;;4.15;;
53646;SDS011;39550;52.230;5.194;2023-07-30T09:17:58;10.63;;;4.35;;
53646;SDS011;39550;52.230;5.194;2023-07-30T09:20:24;10.32;;;3.35;;
53646;SDS011;39550;52.230;5.194;2023-07-30T09:22:50;6.97;;;3.58;;
53646;SDS011;39550;52.230;5.194;2023-07-30T09:25:17;8.85;;;3.58;;
53646;SDS011;39550;52.230;5.194;2023-07-30T09:27:47;8.45;;;3.60;;
53646;SDS011;39550;52.230;5.194;2023-07-30T09:30:15;8.25;;;3.22;;
53646;SDS011;39550;52.230;5.194;2023-07-30T09:32:50;9.98;;;3.75;;
53646;SDS011;39550;52.230;5.194;2023-07-30T09:35:17;7.80;;;3.70;;
53646;SDS011;39550;52.230;5.194;2023-07-30T09:37:43;8.77;;;3.22;;
53646;SDS011;39550;52.230;5.194;2023-07-30T09:40:11;6.80;;;3.28;;
53646;SDS011;39550;52.230;5.194;2023-07-30T09:42:38;7.55;;;3.13;;
53646;SDS011;39550;52.230;5.194;2023-07-30T09:45:21;7.45;;;3.30;;
53646;SDS011;39550;52.230;5.194;2023-07-30T09:47:47;8.18;;;3.10;;
53646;SDS011;39550;52.230;5.194;2023-07-30T09:50:14;11.20;;;3.30;;
53646;SDS011;39550;52.230;5.194;2023-07-30T09:52:41;7.57;;;3.22;;
53646;SDS011;39550;52.230;5.194;2023-07-30T09:55:07;8.05;;;3.20;;
53646;SDS011;39550;52.230;5.194;2023-07-30T09:57:33;9.05;;;3.03;;
53646;SDS011;39550;52.230;5.194;2023-07-30T09:59:59;8.48;;;3.13;;
53646;SDS011;39550;52.230;5.194;2023-07-30T10:02:26;9.07;;;3.45;;
53646;SDS011;39550;52.230;5.194;2023-07-30T10:04:56;11.48;;;3.60;;
53646;SDS011;39550;52.230;5.194;2023-07-30T10:07:24;12.85;;;4.05;;
53646;SDS011;39550;52.230;5.194;2023-07-30T10:09:51;13.32;;;3.95;;
53646;SDS011;39550;52.230;5.194;2023-07-30T10:12:31;8.48;;;3.42;;
53646;SDS011;39550;52.230;5.194;2023-07-30T10:15:00;8.98;;;2.70;;
53646;SDS011;39550;52.230;5.194;2023-07-30T10:17:26;8.52;;;3.00;;
53646;SDS011;39550;52.230;5.194;2023-07-30T10:19:54;8.05;;;3.40;;
53646;SDS011;39550;52.230;5.194;2023-07-30T10:22:35;7.72;;;3.13;;
53646;SDS011;39550;52.230;5.194;2023-07-30T10:25:30;6.38;;;2.80;;
53646;SDS011;39550;52.230;5.194;2023-07-30T10:30:59;7.93;;;2.80;;
53646;SDS011;39550;52.230;5.194;2023-07-30T10:33:43;9.98;;;3.13;;
53646;SDS011;39550;52.230;5.194;2023-07-30T10:36:09;8.00;;;2.63;;
53646;SDS011;39550;52.230;5.194;2023-07-30T10:38:39;8.70;;;3.00;;
53646;SDS011;39550;52.230;5.194;2023-07-30T10:41:11;9.82;;;2.90;;
53646;SDS011;39550;52.230;5.194;2023-07-30T10:46:05;6.88;;;2.97;;
53646;SDS011;39550;52.230;5.194;2023-07-30T10:48:32;8.05;;;2.78;;
53646;SDS011;39550;52.230;5.194;2023-07-30T10:51:04;7.05;;;2.88;;
53646;SDS011;39550;52.230;5.194;2023-07-30T10:53:33;9.30;;;3.22;;
53646;SDS011;39550;52.230;5.194;2023-07-30T10:56:01;8.02;;;2.92;;
53646;SDS011;39550;52.230;5.194;2023-07-30T10:58:31;6.40;;;2.42;;
53646;SDS011;39550;52.230;5.194;2023-07-30T11:01:04;5.97;;;2.60;;
53646;SDS011;39550;52.230;5.194;2023-07-30T11:03:31;7.40;;;2.60;;
53646;SDS011;39550;52.230;5.194;2023-07-30T11:05:57;7.75;;;2.72;;
53646;SDS011;39550;52.230;5.194;2023-07-30T11:08:36;8.60;;;3.55;;
53646;SDS011;39550;52.230;5.194;2023-07-30T11:11:06;8.23;;;2.70;;
53646;SDS011;39550;52.230;5.194;2023-07-30T11:13:37;5.72;;;2.50;;
53646;SDS011;39550;52.230;5.194;2023-07-30T11:16:12;6.72;;;2.60;;
53646;SDS011;39550;52.230;5.194;2023-07-30T11:18:41;9.35;;;2.85;;
53646;SDS011;39550;52.230;5.194;2023-07-30T11:21:10;6.45;;;2.65;;
53646;SDS011;39550;52.230;5.194;2023-07-30T11:23:40;8.15;;;2.63;;
53646;SDS011;39550;52.230;5.194;2023-07-30T11:26:20;6.15;;;2.83;;
53646;SDS011;39550;52.230;5.194;2023-07-30T11:32:33;7.63;;;2.70;;
53646;SDS011;39550;52.230;5.194;2023-07-30T11:34:58;5.78;;;2.30;;
53646;SDS011;39550;52.230;5.194;2023-07-30T11:37:25;9.80;;;2.70;;
53646;SDS011;39550;52.230;5.194;2023-07-30T11:39:51;7.65;;;3.15;;
53646;SDS011;39550;52.230;5.194;2023-07-30T11:42:19;8.02;;;2.50;;
53646;SDS011;39550;52.230;5.194;2023-07-30T11:44:45;6.82;;;2.50;;
53646;SDS011;39550;52.230;5.194;2023-07-30T11:47:10;9.13;;;2.92;;
53646;SDS011;39550;52.230;5.194;2023-07-30T11:49:36;6.68;;;2.67;;
53646;SDS011;39550;52.230;5.194;2023-07-30T11:52:08;6.25;;;2.60;;
53646;SDS011;39550;52.230;5.194;2023-07-30T11:54:35;4.82;;;2.30;;
53646;SDS011;39550;52.230;5.194;2023-07-30T11:57:00;9.60;;;3.00;;
53646;SDS011;39550;52.230;5.194;2023-07-30T11:59:26;7.53;;;2.65;;
53646;SDS011;39550;52.230;5.194;2023-07-30T12:01:52;6.10;;;2.72;;
53646;SDS011;39550;52.230;5.194;2023-07-30T12:04:17;7.43;;;2.83;;
53646;SDS011;39550;52.230;5.194;2023-07-30T12:06:44;7.13;;;2.70;;
53646;SDS011;39550;52.230;5.194;2023-07-30T12:09:18;6.20;;;2.80;;
53646;SDS011;39550;52.230;5.194;2023-07-30T12:11:56;6.53;;;2.53;;
53646;SDS011;39550;52.230;5.194;2023-07-30T12:14:42;6.55;;;2.70;;
53646;SDS011;39550;52.230;5.194;2023-07-30T12:17:07;8.82;;;2.80;;
53646;SDS011;39550;52.230;5.194;2023-07-30T12:19:33;6.75;;;2.40;;
53646;SDS011;39550;52.230;5.194;2023-07-30T12:22:05;8.18;;;3.25;;
53646;SDS011;39550;52.230;5.194;2023-07-30T12:24:31;6.65;;;2.67;;
53646;SDS011;39550;52.230;5.194;2023-07-30T12:26:56;6.15;;;3.05;;
53646;SDS011;39550;52.230;5.194;2023-07-30T12:29:22;7.65;;;2.83;;
53646;SDS011;39550;52.230;5.194;2023-07-30T12:31:47;6.40;;;2.28;;
53646;SDS011;39550;52.230;5.194;2023-07-30T12:34:13;6.10;;;2.28;;
53646;SDS011;39550;52.230;5.194;2023-07-30T12:36:40;5.03;;;2.10;;
53646;SDS011;39550;52.230;5.194;2023-07-30T12:39:05;6.03;;;2.30;;
53646;SDS011;39550;52.230;5.194;2023-07-30T12:41:31;7.13;;;2.85;;
53646;SDS011;39550;52.230;5.194;2023-07-30T12:43:56;8.13;;;3.08;;
53646;SDS011;39550;52.230;5.194;2023-07-30T12:46:22;6.10;;;2.65;;
53646;SDS011;39550;52.230;5.194;2023-07-30T12:48:50;4.97;;;2.30;;
53646;SDS011;39550;52.230;5.194;2023-07-30T12:51:19;9.80;;;3.25;;
53646;SDS011;39550;52.230;5.194;2023-07-30T12:53:45;5.13;;;2.60;;
53646;SDS011;39550;52.230;5.194;2023-07-30T12:56:10;7.07;;;2.40;;
53646;SDS011;39550;52.230;5.194;2023-07-30T12:58:35;8.13;;;2.72;;
53646;SDS011;39550;52.230;5.194;2023-07-30T13:01:02;6.32;;;2.60;;
53646;SDS011;39550;52.230;5.194;2023-07-30T13:03:30;6.30;;;2.55;;
53646;SDS011;39550;52.230;5.194;2023-07-30T13:05:55;8.00;;;3.08;;
53646;SDS011;39550;52.230;5.194;2023-07-30T13:08:20;7.18;;;2.60;;
53646;SDS011;39550;52.230;5.194;2023-07-30T13:10:46;5.80;;;2.40;;
53646;SDS011;39550;52.230;5.194;2023-07-30T13:13:12;7.03;;;2.58;;
53646;SDS011;39550;52.230;5.194;2023-07-30T13:15:37;5.10;;;2.30;;
53646;SDS011;39550;52.230;5.194;2023-07-30T13:18:02;7.22;;;2.65;;
53646;SDS011;39550;52.230;5.194;2023-07-30T13:20:28;5.50;;;2.13;;
53646;SDS011;39550;52.230;5.194;2023-07-30T13:22:54;7.28;;;2.70;;
53646;SDS011;39550;52.230;5.194;2023-07-30T13:25:19;5.53;;;2.30;;
53646;SDS011;39550;52.230;5.194;2023-07-30T13:27:45;6.85;;;2.30;;
53646;SDS011;39550;52.230;5.194;2023-07-30T13:30:11;4.90;;;2.55;;
53646;SDS011;39550;52.230;5.194;2023-07-30T13:32:36;5.22;;;2.75;;
53646;SDS011;39550;52.230;5.194;2023-07-30T13:35:02;8.07;;;2.85;;
53646;SDS011;39550;52.230;5.194;2023-07-30T13:37:27;4.38;;;2.20;;
53646;SDS011;39550;52.230;5.194;2023-07-30T13:39:53;5.60;;;2.50;;
53646;SDS011;39550;52.230;5.194;2023-07-30T13:42:18;6.47;;;2.47;;
53646;SDS011;39550;52.230;5.194;2023-07-30T13:44:43;5.65;;;2.63;;
53646;SDS011;39550;52.230;5.194;2023-07-30T13:47:12;5.30;;;2.20;;
53646;SDS011;39550;52.230;5.194;2023-07-30T13:49:38;5.80;;;2.50;;
53646;SDS011;39550;52.230;5.194;2023-07-30T13:52:04;5.15;;;2.08;;
53646;SDS011;39550;52.230;5.194;2023-07-30T13:54:29;5.60;;;2.30;;
53646;SDS011;39550;52.230;5.194;2023-07-30T13:56:55;6.47;;;2.20;;
53646;SDS011;39550;52.230;5.194;2023-07-30T13:59:20;6.05;;;2.13;;
53646;SDS011;39550;52.230;5.194;2023-07-30T14:01:46;4.32;;;2.15;;
53646;SDS011;39550;52.230;5.194;2023-07-30T14:04:20;7.97;;;2.22;;
53646;SDS011;39550;52.230;5.194;2023-07-30T14:06:48;5.15;;;2.40;;
53646;SDS011;39550;52.230;5.194;2023-07-30T14:09:13;5.65;;;2.30;;
53646;SDS011;39550;52.230;5.194;2023-07-30T14:11:39;6.45;;;2.35;;
53646;SDS011;39550;52.230;5.194;2023-07-30T14:14:08;6.30;;;2.70;;
53646;SDS011;39550;52.230;5.194;2023-07-30T14:16:33;5.88;;;2.60;;
53646;SDS011;39550;52.230;5.194;2023-07-30T14:18:59;9.10;;;2.97;;
53646;SDS011;39550;52.230;5.194;2023-07-30T14:21:24;9.40;;;3.10;;
53646;SDS011;39550;52.230;5.194;2023-07-30T14:23:53;7.87;;;2.70;;
53646;SDS011;39550;52.230;5.194;2023-07-30T14:26:18;7.18;;;2.95;;
53646;SDS011;39550;52.230;5.194;2023-07-30T14:28:44;4.95;;;2.42;;
53646;SDS011;39550;52.230;5.194;2023-07-30T14:31:10;7.03;;;2.50;;
53646;SDS011;39550;52.230;5.194;2023-07-30T14:33:36;4.93;;;2.70;;
53646;SDS011;39550;52.230;5.194;2023-07-30T14:36:01;7.95;;;2.80;;
53646;SDS011;39550;52.230;5.194;2023-07-30T14:38:28;9.23;;;2.50;;
53646;SDS011;39550;52.230;5.194;2023-07-30T14:40:53;6.70;;;2.88;;
53646;SDS011;39550;52.230;5.194;2023-07-30T14:43:19;9.10;;;2.65;;
53646;SDS011;39550;52.230;5.194;2023-07-30T14:45:44;6.60;;;2.53;;
53646;SDS011;39550;52.230;5.194;2023-07-30T14:48:10;6.43;;;2.78;;
53646;SDS011;39550;52.230;5.194;2023-07-30T14:50:35;6.15;;;2.53;;
53646;SDS011;39550;52.230;5.194;2023-07-30T14:53:00;8.70;;;3.17;;